sensor_id;sensor_type;location;lat;lon;timestamp;pressure;altitude;pressure_sealevel;temperature;humidity
50867;BME280;36839;51.946;21.002;2023-02-13T00:01:23;101848.12;;;2.55;100.00
50867;BME280;36839;51.946;21.002;2023-02-13T00:03:50;101845.36;;;2.56;100.00
50867;BME280;36839;51.946;21.002;2023-02-13T00:06:17;101845.61;;;2.57;100.00
50867;BME280;36839;51.946;21.002;2023-02-13T00:08:44;101841.00;;;2.57;100.00
50867;BME280;36839;51.946;21.002;2023-02-13T00:11:12;101844.30;;;2.59;100.00
50867;BME280;36839;51.946;21.002;2023-02-13T00:13:39;101843.71;;;2.59;100.00
50867;BME280;36839;51.946;21.002;2023-02-13T00:16:07;101839.03;;;2.60;100.00
50867;BME280;36839;51.946;21.002;2023-02-13T00:18:36;101837.36;;;2.61;100.00
50867;BME280;36839;51.946;21.002;2023-02-13T00:21:11;101836.42;;;2.59;100.00
50867;BME280;36839;51.946;21.002;2023-02-13T00:23:39;101843.02;;;2.54;100.00
50867;BME280;36839;51.946;21.002;2023-02-13T00:26:09;101849.44;;;2.46;100.00
50867;BME280;36839;51.946;21.002;2023-02-13T00:28:36;101841.95;;;2.37;100.00
50867;BME280;36839;51.946;21.002;2023-02-13T00:31:09;101838.75;;;2.28;100.00
50867;BME280;36839;51.946;21.002;2023-02-13T00:33:38;101832.70;;;2.21;100.00
50867;BME280;36839;51.946;21.002;2023-02-13T00:36:16;101828.83;;;2.15;100.00
50867;BME280;36839;51.946;21.002;2023-02-13T00:38:44;101830.56;;;2.11;100.00
50867;BME280;36839;51.946;21.002;2023-02-13T00:41:12;101829.10;;;2.08;100.00
50867;BME280;36839;51.946;21.002;2023-02-13T00:43:40;101822.69;;;2.07;100.00
50867;BME280;36839;51.946;21.002;2023-02-13T00:46:07;101811.73;;;2.06;100.00
50867;BME280;36839;51.946;21.002;2023-02-13T00:48:35;101821.23;;;2.04;100.00
50867;BME280;36839;51.946;21.002;2023-02-13T00:51:03;101821.83;;;2.03;100.00
50867;BME280;36839;51.946;21.002;2023-02-13T00:53:31;101829.59;;;2.04;100.00
50867;BME280;36839;51.946;21.002;2023-02-13T00:55:58;101824.84;;;2.05;100.00
50867;BME280;36839;51.946;21.002;2023-02-13T00:58:25;101813.26;;;2.07;100.00
50867;BME280;36839;51.946;21.002;2023-02-13T01:00:53;101816.73;;;2.08;100.00
50867;BME280;36839;51.946;21.002;2023-02-13T01:03:21;101814.55;;;2.10;100.00
50867;BME280;36839;51.946;21.002;2023-02-13T01:05:49;101811.77;;;2.13;100.00
50867;BME280;36839;51.946;21.002;2023-02-13T01:08:17;101814.05;;;2.15;100.00
50867;BME280;36839;51.946;21.002;2023-02-13T01:10:46;101810.57;;;2.19;100.00
50867;BME280;36839;51.946;21.002;2023-02-13T01:13:15;101808.44;;;2.21;100.00
50867;BME280;36839;51.946;21.002;2023-02-13T01:15:47;101805.82;;;2.25;100.00
50867;BME280;36839;51.946;21.002;2023-02-13T01:18:17;101807.94;;;2.27;100.00
50867;BME280;36839;51.946;21.002;2023-02-13T01:20:55;101817.09;;;2.32;100.00
50867;BME280;36839;51.946;21.002;2023-02-13T01:23:30;101812.70;;;2.35;100.00
50867;BME280;36839;51.946;21.002;2023-02-13T01:26:08;101812.42;;;2.37;100.00
50867;BME280;36839;51.946;21.002;2023-02-13T01:28:40;101817.45;;;2.39;100.00
50867;BME280;36839;51.946;21.002;2023-02-13T01:31:07;101818.16;;;2.41;100.00
50867;BME280;36839;51.946;21.002;2023-02-13T01:33:34;101820.78;;;2.42;100.00
50867;BME280;36839;51.946;21.002;2023-02-13T01:36:10;101825.13;;;2.44;100.00
50867;BME280;36839;51.946;21.002;2023-02-13T01:38:40;101822.16;;;2.44;100.00
50867;BME280;36839;51.946;21.002;2023-02-13T01:41:08;101819.31;;;2.45;100.00
50867;BME280;36839;51.946;21.002;2023-02-13T01:43:48;101815.17;;;2.45;100.00
50867;BME280;36839;51.946;21.002;2023-02-13T01:46:27;101808.56;;;2.44;100.00
50867;BME280;36839;51.946;21.002;2023-02-13T01:49:12;101812.02;;;2.44;100.00
50867;BME280;36839;51.946;21.002;2023-02-13T01:51:42;101805.84;;;2.44;100.00
50867;BME280;36839;51.946;21.002;2023-02-13T01:54:15;101804.90;;;2.45;100.00
50867;BME280;36839;51.946;21.002;2023-02-13T01:56:53;101806.02;;;2.45;100.00
50867;BME280;36839;51.946;21.002;2023-02-13T01:59:36;101800.89;;;2.44;100.00
50867;BME280;36839;51.946;21.002;2023-02-13T02:02:07;101798.37;;;2.41;100.00
50867;BME280;36839;51.946;21.002;2023-02-13T02:04:37;101802.83;;;2.40;100.00
50867;BME280;36839;51.946;21.002;2023-02-13T02:07:14;101801.85;;;2.39;100.00
50867;BME280;36839;51.946;21.002;2023-02-13T02:09:45;101802.71;;;2.38;100.00
50867;BME280;36839;51.946;21.002;2023-02-13T02:12:25;101800.61;;;2.37;100.00
50867;BME280;36839;51.946;21.002;2023-02-13T02:14:57;101794.87;;;2.38;100.00
50867;BME280;36839;51.946;21.002;2023-02-13T02:17:26;101791.19;;;2.39;100.00
50867;BME280;36839;51.946;21.002;2023-02-13T02:25:49;101787.23;;;2.40;100.00
50867;BME280;36839;51.946;21.002;2023-02-13T02:40:07;101796.25;;;2.45;100.00
50867;BME280;36839;51.946;21.002;2023-02-13T02:54:22;101800.41;;;2.49;100.00
50867;BME280;36839;51.946;21.002;2023-02-13T02:57:17;101798.62;;;2.50;100.00
50867;BME280;36839;51.946;21.002;2023-02-13T02:59:48;101797.52;;;2.51;100.00
50867;BME280;36839;51.946;21.002;2023-02-13T03:02:34;101792.63;;;2.53;100.00
50867;BME280;36839;51.946;21.002;2023-02-13T03:05:25;101794.02;;;2.55;100.00
50867;BME280;36839;51.946;21.002;2023-02-13T03:08:19;101795.17;;;2.57;100.00
50867;BME280;36839;51.946;21.002;2023-02-13T03:11:08;101793.52;;;2.59;100.00
50867;BME280;36839;51.946;21.002;2023-02-13T03:13:56;101794.61;;;2.61;100.00
50867;BME280;36839;51.946;21.002;2023-02-13T03:16:25;101796.42;;;2.62;100.00
50867;BME280;36839;51.946;21.002;2023-02-13T03:19:42;101799.14;;;2.65;100.00
50867;BME280;36839;51.946;21.002;2023-02-13T03:25:26;101800.42;;;2.73;100.00
50867;BME280;36839;51.946;21.002;2023-02-13T03:28:17;101801.02;;;2.77;100.00
50867;BME280;36839;51.946;21.002;2023-02-13T03:31:22;101803.86;;;2.82;100.00
50867;BME280;36839;51.946;21.002;2023-02-13T03:37:09;101801.75;;;2.90;100.00
50867;BME280;36839;51.946;21.002;2023-02-13T03:40:05;101793.98;;;2.94;100.00
50867;BME280;36839;51.946;21.002;2023-02-13T03:45:40;101794.84;;;3.06;100.00
50867;BME280;36839;51.946;21.002;2023-02-13T03:48:36;101792.38;;;3.10;100.00
50867;BME280;36839;51.946;21.002;2023-02-13T03:54:37;101802.86;;;3.15;100.00
50867;BME280;36839;51.946;21.002;2023-02-13T03:57:28;101802.67;;;3.17;100.00
50867;BME280;36839;51.946;21.002;2023-02-13T04:00:17;101805.20;;;3.17;100.00
50867;BME280;36839;51.946;21.002;2023-02-13T04:02:59;101801.07;;;3.20;100.00
50867;BME280;36839;51.946;21.002;2023-02-13T04:05:31;101798.65;;;3.21;100.00
50867;BME280;36839;51.946;21.002;2023-02-13T04:08:02;101799.21;;;3.23;100.00
50867;BME280;36839;51.946;21.002;2023-02-13T04:10:31;101792.38;;;3.24;100.00
50867;BME280;36839;51.946;21.002;2023-02-13T04:15:50;101786.30;;;3.27;100.00
50867;BME280;36839;51.946;21.002;2023-02-13T04:18:27;101779.73;;;3.30;100.00
50867;BME280;36839;51.946;21.002;2023-02-13T04:20:59;101781.05;;;3.32;100.00
50867;BME280;36839;51.946;21.002;2023-02-13T04:23:27;101778.27;;;3.32;100.00
50867;BME280;36839;51.946;21.002;2023-02-13T04:25:54;101777.15;;;3.32;100.00
50867;BME280;36839;51.946;21.002;2023-02-13T04:28:22;101774.11;;;3.32;100.00
50867;BME280;36839;51.946;21.002;2023-02-13T04:30:49;101773.94;;;3.32;100.00
50867;BME280;36839;51.946;21.002;2023-02-13T04:33:17;101769.58;;;3.32;100.00
50867;BME280;36839;51.946;21.002;2023-02-13T04:35:44;101769.54;;;3.32;100.00
50867;BME280;36839;51.946;21.002;2023-02-13T04:38:11;101769.26;;;3.33;100.00
50867;BME280;36839;51.946;21.002;2023-02-13T04:40:38;101774.35;;;3.33;100.00
50867;BME280;36839;51.946;21.002;2023-02-13T04:43:05;101773.05;;;3.33;100.00
50867;BME280;36839;51.946;21.002;2023-02-13T04:45:32;101763.46;;;3.32;100.00
50867;BME280;36839;51.946;21.002;2023-02-13T04:47:59;101767.55;;;3.33;100.00
50867;BME280;36839;51.946;21.002;2023-02-13T04:50:25;101766.04;;;3.34;100.00
50867;BME280;36839;51.946;21.002;2023-02-13T04:52:54;101768.52;;;3.34;100.00
50867;BME280;36839;51.946;21.002;2023-02-13T04:55:25;101767.80;;;3.34;100.00
50867;BME280;36839;51.946;21.002;2023-02-13T04:57:54;101765.89;;;3.35;100.00
50867;BME280;36839;51.946;21.002;2023-02-13T05:00:23;101770.85;;;3.36;100.00
50867;BME280;36839;51.946;21.002;2023-02-13T05:02:50;101767.09;;;3.37;100.00
50867;BME280;36839;51.946;21.002;2023-02-13T05:05:18;101768.70;;;3.38;100.00
50867;BME280;36839;51.946;21.002;2023-02-13T05:07:45;101769.80;;;3.39;100.00
50867;BME280;36839;51.946;21.002;2023-02-13T05:10:15;101773.42;;;3.39;100.00
50867;BME280;36839;51.946;21.002;2023-02-13T05:12:41;101774.30;;;3.39;100.00
50867;BME280;36839;51.946;21.002;2023-02-13T05:15:09;101776.86;;;3.39;100.00
50867;BME280;36839;51.946;21.002;2023-02-13T05:17:35;101782.29;;;3.39;100.00
50867;BME280;36839;51.946;21.002;2023-02-13T05:20:02;101784.48;;;3.39;100.00
50867;BME280;36839;51.946;21.002;2023-02-13T05:22:30;101782.25;;;3.40;100.00
50867;BME280;36839;51.946;21.002;2023-02-13T05:25:18;101782.63;;;3.40;100.00
50867;BME280;36839;51.946;21.002;2023-02-13T05:27:44;101779.41;;;3.37;100.00
50867;BME280;36839;51.946;21.002;2023-02-13T05:30:13;101782.09;;;3.36;100.00
50867;BME280;36839;51.946;21.002;2023-02-13T05:32:40;101783.02;;;3.35;100.00
50867;BME280;36839;51.946;21.002;2023-02-13T05:35:09;101784.77;;;3.34;100.00
50867;BME280;36839;51.946;21.002;2023-02-13T05:37:36;101782.09;;;3.33;100.00
50867;BME280;36839;51.946;21.002;2023-02-13T05:40:03;101784.36;;;3.34;100.00
50867;BME280;36839;51.946;21.002;2023-02-13T05:42:30;101786.00;;;3.34;100.00
50867;BME280;36839;51.946;21.002;2023-02-13T05:44:58;101791.92;;;3.34;100.00
50867;BME280;36839;51.946;21.002;2023-02-13T05:47:25;101791.58;;;3.33;100.00
50867;BME280;36839;51.946;21.002;2023-02-13T05:49:52;101793.92;;;3.32;100.00
50867;BME280;36839;51.946;21.002;2023-02-13T05:52:18;101791.56;;;3.32;100.00
50867;BME280;36839;51.946;21.002;2023-02-13T05:54:45;101798.83;;;3.32;100.00
50867;BME280;36839;51.946;21.002;2023-02-13T05:57:13;101797.59;;;3.33;100.00
50867;BME280;36839;51.946;21.002;2023-02-13T05:59:40;101801.62;;;3.33;100.00
50867;BME280;36839;51.946;21.002;2023-02-13T06:02:06;101800.95;;;3.33;100.00
50867;BME280;36839;51.946;21.002;2023-02-13T06:04:34;101803.42;;;3.33;100.00
50867;BME280;36839;51.946;21.002;2023-02-13T06:07:01;101801.62;;;3.33;100.00
50867;BME280;36839;51.946;21.002;2023-02-13T06:09:28;101801.28;;;3.33;100.00
50867;BME280;36839;51.946;21.002;2023-02-13T06:11:55;101804.91;;;3.35;100.00
50867;BME280;36839;51.946;21.002;2023-02-13T06:14:22;101807.76;;;3.36;100.00
50867;BME280;36839;51.946;21.002;2023-02-13T06:16:48;101801.46;;;3.37;100.00
50867;BME280;36839;51.946;21.002;2023-02-13T06:19:17;101799.84;;;3.38;100.00
50867;BME280;36839;51.946;21.002;2023-02-13T06:21:44;101793.63;;;3.39;100.00
50867;BME280;36839;51.946;21.002;2023-02-13T06:24:13;101795.08;;;3.40;100.00
50867;BME280;36839;51.946;21.002;2023-02-13T06:26:40;101796.41;;;3.41;100.00
50867;BME280;36839;51.946;21.002;2023-02-13T06:29:09;101794.20;;;3.42;100.00
50867;BME280;36839;51.946;21.002;2023-02-13T06:31:37;101792.36;;;3.42;100.00
50867;BME280;36839;51.946;21.002;2023-02-13T06:34:04;101789.38;;;3.42;100.00
50867;BME280;36839;51.946;21.002;2023-02-13T06:36:31;101792.15;;;3.42;100.00
50867;BME280;36839;51.946;21.002;2023-02-13T06:38:58;101795.47;;;3.42;100.00
50867;BME280;36839;51.946;21.002;2023-02-13T06:41:26;101799.89;;;3.41;100.00
50867;BME280;36839;51.946;21.002;2023-02-13T06:43:53;101797.83;;;3.42;100.00
50867;BME280;36839;51.946;21.002;2023-02-13T06:46:20;101797.29;;;3.43;100.00
50867;BME280;36839;51.946;21.002;2023-02-13T06:48:48;101797.39;;;3.44;100.00
50867;BME280;36839;51.946;21.002;2023-02-13T06:51:15;101803.08;;;3.45;100.00
50867;BME280;36839;51.946;21.002;2023-02-13T06:53:43;101810.91;;;3.47;100.00
50867;BME280;36839;51.946;21.002;2023-02-13T06:56:11;101810.13;;;3.49;100.00
50867;BME280;36839;51.946;21.002;2023-02-13T06:58:38;101809.40;;;3.50;100.00
50867;BME280;36839;51.946;21.002;2023-02-13T07:01:06;101810.37;;;3.51;100.00
50867;BME280;36839;51.946;21.002;2023-02-13T07:03:33;101814.45;;;3.55;100.00
50867;BME280;36839;51.946;21.002;2023-02-13T07:06:02;101814.64;;;3.60;100.00
50867;BME280;36839;51.946;21.002;2023-02-13T07:08:30;101820.61;;;3.64;100.00
50867;BME280;36839;51.946;21.002;2023-02-13T07:10:57;101820.73;;;3.67;100.00
50867;BME280;36839;51.946;21.002;2023-02-13T07:13:23;101820.96;;;3.70;100.00
50867;BME280;36839;51.946;21.002;2023-02-13T07:15:50;101824.38;;;3.74;100.00
50867;BME280;36839;51.946;21.002;2023-02-13T07:18:18;101815.78;;;3.78;100.00
50867;BME280;36839;51.946;21.002;2023-02-13T07:20:45;101817.85;;;3.84;100.00
50867;BME280;36839;51.946;21.002;2023-02-13T07:23:12;101817.66;;;3.88;100.00
50867;BME280;36839;51.946;21.002;2023-02-13T07:25:39;101818.40;;;3.93;100.00
50867;BME280;36839;51.946;21.002;2023-02-13T07:28:06;101815.14;;;3.97;100.00
50867;BME280;36839;51.946;21.002;2023-02-13T07:30:34;101805.67;;;4.03;100.00
50867;BME280;36839;51.946;21.002;2023-02-13T07:33:03;101797.84;;;4.06;100.00
50867;BME280;36839;51.946;21.002;2023-02-13T07:35:31;101796.50;;;4.11;100.00
50867;BME280;36839;51.946;21.002;2023-02-13T07:37:58;101793.21;;;4.14;100.00
50867;BME280;36839;51.946;21.002;2023-02-13T07:40:26;101796.76;;;4.17;100.00
50867;BME280;36839;51.946;21.002;2023-02-13T07:42:54;101794.33;;;4.18;100.00
50867;BME280;36839;51.946;21.002;2023-02-13T07:45:21;101793.30;;;4.20;100.00
50867;BME280;36839;51.946;21.002;2023-02-13T07:47:48;101800.65;;;4.26;100.00
50867;BME280;36839;51.946;21.002;2023-02-13T07:50:16;101799.87;;;4.30;100.00
50867;BME280;36839;51.946;21.002;2023-02-13T07:52:52;101806.13;;;4.34;100.00
50867;BME280;36839;51.946;21.002;2023-02-13T07:55:21;101794.70;;;4.41;100.00
50867;BME280;36839;51.946;21.002;2023-02-13T07:57:50;101795.27;;;4.50;100.00
50867;BME280;36839;51.946;21.002;2023-02-13T08:00:19;101794.94;;;4.56;100.00
50867;BME280;36839;51.946;21.002;2023-02-13T08:02:47;101800.95;;;4.64;100.00
50867;BME280;36839;51.946;21.002;2023-02-13T08:05:17;101807.10;;;4.66;100.00
50867;BME280;36839;51.946;21.002;2023-02-13T08:07:44;101794.98;;;4.68;100.00
50867;BME280;36839;51.946;21.002;2023-02-13T08:10:12;101792.29;;;4.68;100.00
50867;BME280;36839;51.946;21.002;2023-02-13T08:12:59;101800.70;;;4.62;100.00
50867;BME280;36839;51.946;21.002;2023-02-13T08:15:26;101804.52;;;4.56;100.00
50867;BME280;36839;51.946;21.002;2023-02-13T08:17:53;101797.76;;;4.56;100.00
50867;BME280;36839;51.946;21.002;2023-02-13T08:20:21;101795.75;;;4.57;100.00
50867;BME280;36839;51.946;21.002;2023-02-13T08:22:49;101800.52;;;4.57;100.00
50867;BME280;36839;51.946;21.002;2023-02-13T08:25:17;101807.50;;;4.57;100.00
50867;BME280;36839;51.946;21.002;2023-02-13T08:27:46;101802.34;;;4.59;100.00
50867;BME280;36839;51.946;21.002;2023-02-13T08:30:14;101797.65;;;4.58;100.00
50867;BME280;36839;51.946;21.002;2023-02-13T08:32:44;101793.85;;;4.61;100.00
50867;BME280;36839;51.946;21.002;2023-02-13T08:35:11;101796.64;;;4.62;100.00
50867;BME280;36839;51.946;21.002;2023-02-13T08:37:38;101788.99;;;4.66;100.00
50867;BME280;36839;51.946;21.002;2023-02-13T08:40:06;101779.88;;;4.72;100.00
50867;BME280;36839;51.946;21.002;2023-02-13T08:42:36;101772.10;;;4.77;100.00
50867;BME280;36839;51.946;21.002;2023-02-13T08:45:04;101772.15;;;4.82;100.00
50867;BME280;36839;51.946;21.002;2023-02-13T08:47:31;101772.64;;;4.89;100.00
50867;BME280;36839;51.946;21.002;2023-02-13T08:49:58;101769.55;;;4.93;100.00
50867;BME280;36839;51.946;21.002;2023-02-13T08:52:25;101767.23;;;5.00;100.00
50867;BME280;36839;51.946;21.002;2023-02-13T08:54:52;101771.73;;;5.09;100.00
50867;BME280;36839;51.946;21.002;2023-02-13T08:57:19;101764.48;;;5.25;100.00
50867;BME280;36839;51.946;21.002;2023-02-13T08:59:47;101765.40;;;5.40;100.00
50867;BME280;36839;51.946;21.002;2023-02-13T09:02:14;101775.99;;;5.42;100.00
50867;BME280;36839;51.946;21.002;2023-02-13T09:04:41;101757.23;;;5.36;100.00
50867;BME280;36839;51.946;21.002;2023-02-13T09:07:08;101761.34;;;5.44;100.00
50867;BME280;36839;51.946;21.002;2023-02-13T09:09:35;101759.81;;;5.49;100.00
50867;BME280;36839;51.946;21.002;2023-02-13T09:12:02;101741.28;;;5.57;100.00
50867;BME280;36839;51.946;21.002;2023-02-13T09:14:29;101748.04;;;5.64;100.00
50867;BME280;36839;51.946;21.002;2023-02-13T09:16:56;101753.80;;;5.65;100.00
50867;BME280;36839;51.946;21.002;2023-02-13T09:19:24;101756.00;;;5.62;100.00
50867;BME280;36839;51.946;21.002;2023-02-13T09:21:51;101740.56;;;5.71;100.00
50867;BME280;36839;51.946;21.002;2023-02-13T09:24:18;101752.22;;;5.78;100.00
50867;BME280;36839;51.946;21.002;2023-02-13T09:26:45;101765.04;;;5.71;100.00
50867;BME280;36839;51.946;21.002;2023-02-13T09:29:12;101762.27;;;5.67;100.00
50867;BME280;36839;51.946;21.002;2023-02-13T09:31:39;101755.45;;;5.64;100.00
50867;BME280;36839;51.946;21.002;2023-02-13T09:34:05;101768.32;;;5.59;100.00
50867;BME280;36839;51.946;21.002;2023-02-13T09:36:32;101757.45;;;5.59;100.00
50867;BME280;36839;51.946;21.002;2023-02-13T09:38:59;101754.77;;;5.65;100.00
50867;BME280;36839;51.946;21.002;2023-02-13T09:41:35;101756.73;;;5.67;100.00
50867;BME280;36839;51.946;21.002;2023-02-13T09:47:21;101745.20;;;5.69;100.00
50867;BME280;36839;51.946;21.002;2023-02-13T09:49:56;101748.52;;;5.68;100.00
50867;BME280;36839;51.946;21.002;2023-02-13T09:52:32;101757.16;;;5.60;100.00
50867;BME280;36839;51.946;21.002;2023-02-13T09:55:01;101758.77;;;5.51;100.00
50867;BME280;36839;51.946;21.002;2023-02-13T09:57:40;101755.64;;;5.44;100.00
50867;BME280;36839;51.946;21.002;2023-02-13T10:03:11;101756.63;;;5.35;100.00
50867;BME280;36839;51.946;21.002;2023-02-13T10:17:53;101763.55;;;5.21;100.00
50867;BME280;36839;51.946;21.002;2023-02-13T10:22:50;101773.16;;;5.08;100.00
50867;BME280;36839;51.946;21.002;2023-02-13T10:27:48;101779.52;;;5.02;100.00
50867;BME280;36839;51.946;21.002;2023-02-13T10:30:21;101784.27;;;4.98;100.00
50867;BME280;36839;51.946;21.002;2023-02-13T10:38:33;101779.04;;;4.99;100.00
50867;BME280;36839;51.946;21.002;2023-02-13T10:41:22;101776.66;;;5.00;100.00
50867;BME280;36839;51.946;21.002;2023-02-13T10:47:02;101771.75;;;5.01;100.00
50867;BME280;36839;51.946;21.002;2023-02-13T10:49:42;101760.11;;;5.08;100.00
50867;BME280;36839;51.946;21.002;2023-02-13T11:00:50;101761.55;;;5.20;100.00
50867;BME280;36839;51.946;21.002;2023-02-13T11:03:21;101753.91;;;5.12;100.00
50867;BME280;36839;51.946;21.002;2023-02-13T11:05:51;101749.30;;;5.11;100.00
50867;BME280;36839;51.946;21.002;2023-02-13T11:08:24;101746.46;;;5.09;100.00
50867;BME280;36839;51.946;21.002;2023-02-13T11:10:52;101745.33;;;5.09;100.00
50867;BME280;36839;51.946;21.002;2023-02-13T11:13:23;101741.27;;;5.08;100.00
50867;BME280;36839;51.946;21.002;2023-02-13T11:16:05;101746.27;;;5.05;100.00
50867;BME280;36839;51.946;21.002;2023-02-13T11:18:38;101745.67;;;5.05;100.00
50867;BME280;36839;51.946;21.002;2023-02-13T11:21:10;101738.88;;;5.10;100.00
50867;BME280;36839;51.946;21.002;2023-02-13T11:24:00;101740.56;;;5.10;100.00
50867;BME280;36839;51.946;21.002;2023-02-13T11:26:33;101736.66;;;5.14;100.00
50867;BME280;36839;51.946;21.002;2023-02-13T11:29:24;101747.02;;;5.13;100.00
50867;BME280;36839;51.946;21.002;2023-02-13T11:32:01;101750.05;;;5.10;100.00
50867;BME280;36839;51.946;21.002;2023-02-13T11:34:31;101752.66;;;5.04;100.00
50867;BME280;36839;51.946;21.002;2023-02-13T11:37:18;101746.98;;;4.98;100.00
50867;BME280;36839;51.946;21.002;2023-02-13T11:39:48;101750.76;;;4.96;100.00
50867;BME280;36839;51.946;21.002;2023-02-13T11:42:15;101744.04;;;4.98;100.00
50867;BME280;36839;51.946;21.002;2023-02-13T11:44:49;101745.35;;;4.99;100.00
50867;BME280;36839;51.946;21.002;2023-02-13T11:47:39;101740.48;;;4.96;100.00
50867;BME280;36839;51.946;21.002;2023-02-13T11:50:28;101733.59;;;4.96;100.00
50867;BME280;36839;51.946;21.002;2023-02-13T11:55:32;101728.50;;;5.00;100.00
50867;BME280;36839;51.946;21.002;2023-02-13T11:58:03;101727.65;;;5.06;100.00
50867;BME280;36839;51.946;21.002;2023-02-13T12:00:47;101724.06;;;5.16;100.00
50867;BME280;36839;51.946;21.002;2023-02-13T12:06:12;101721.84;;;5.22;100.00
50867;BME280;36839;51.946;21.002;2023-02-13T12:08:43;101708.80;;;5.24;100.00
50867;BME280;36839;51.946;21.002;2023-02-13T12:11:47;101703.40;;;5.20;100.00
50867;BME280;36839;51.946;21.002;2023-02-13T12:14:20;101697.74;;;5.34;100.00
50867;BME280;36839;51.946;21.002;2023-02-13T12:16:51;101693.94;;;5.41;100.00
50867;BME280;36839;51.946;21.002;2023-02-13T12:19:28;101688.39;;;5.49;100.00
50867;BME280;36839;51.946;21.002;2023-02-13T12:22:18;101687.59;;;5.55;100.00
50867;BME280;36839;51.946;21.002;2023-02-13T12:35:56;101674.03;;;5.58;100.00
50867;BME280;36839;51.946;21.002;2023-02-13T12:41:27;101667.56;;;5.40;100.00
50867;BME280;36839;51.946;21.002;2023-02-13T12:46:56;101654.33;;;5.56;100.00
50867;BME280;36839;51.946;21.002;2023-02-13T12:49:57;101646.98;;;5.55;100.00
50867;BME280;36839;51.946;21.002;2023-02-13T13:04:13;101646.57;;;5.56;100.00
50867;BME280;36839;51.946;21.002;2023-02-13T13:09:43;101647.88;;;5.62;100.00
50867;BME280;36839;51.946;21.002;2023-02-13T13:12:29;101636.61;;;5.72;100.00
50867;BME280;36839;51.946;21.002;2023-02-13T13:20:50;101631.15;;;5.85;100.00
50867;BME280;36839;51.946;21.002;2023-02-13T13:23:36;101617.17;;;5.82;100.00
50867;BME280;36839;51.946;21.002;2023-02-13T13:28:44;101611.35;;;5.84;100.00
50867;BME280;36839;51.946;21.002;2023-02-13T13:31:15;101610.15;;;5.87;100.00
50867;BME280;36839;51.946;21.002;2023-02-13T13:33:45;101603.14;;;5.86;100.00
50867;BME280;36839;51.946;21.002;2023-02-13T13:44:37;101597.10;;;5.70;100.00
50867;BME280;36839;51.946;21.002;2023-02-13T13:47:31;101600.55;;;5.60;100.00
50867;BME280;36839;51.946;21.002;2023-02-13T13:50:11;101602.32;;;5.51;100.00
50867;BME280;36839;51.946;21.002;2023-02-13T14:01:29;101604.60;;;5.30;100.00
50867;BME280;36839;51.946;21.002;2023-02-13T14:04:36;101608.89;;;5.27;100.00
50867;BME280;36839;51.946;21.002;2023-02-13T14:09:40;101615.40;;;5.22;100.00
50867;BME280;36839;51.946;21.002;2023-02-13T14:14:52;101607.86;;;5.16;100.00
50867;BME280;36839;51.946;21.002;2023-02-13T14:20:33;101611.29;;;5.12;100.00
50867;BME280;36839;51.946;21.002;2023-02-13T14:25:40;101611.85;;;5.14;100.00
50867;BME280;36839;51.946;21.002;2023-02-13T14:28:24;101617.90;;;5.12;100.00
50867;BME280;36839;51.946;21.002;2023-02-13T14:31:04;101616.02;;;5.13;100.00
50867;BME280;36839;51.946;21.002;2023-02-13T14:33:34;101606.27;;;5.10;100.00
50867;BME280;36839;51.946;21.002;2023-02-13T14:36:05;101603.13;;;5.09;100.00
50867;BME280;36839;51.946;21.002;2023-02-13T14:38:35;101594.81;;;5.06;100.00
50867;BME280;36839;51.946;21.002;2023-02-13T14:41:02;101578.30;;;5.05;100.00
50867;BME280;36839;51.946;21.002;2023-02-13T14:43:36;101572.93;;;5.03;100.00
50867;BME280;36839;51.946;21.002;2023-02-13T14:46:33;101573.31;;;5.03;100.00
50867;BME280;36839;51.946;21.002;2023-02-13T14:49:27;101566.79;;;5.01;100.00
50867;BME280;36839;51.946;21.002;2023-02-13T14:52:04;101564.17;;;5.00;100.00
50867;BME280;36839;51.946;21.002;2023-02-13T14:54:37;101579.17;;;5.00;100.00
50867;BME280;36839;51.946;21.002;2023-02-13T14:57:31;101570.73;;;5.02;100.00
50867;BME280;36839;51.946;21.002;2023-02-13T15:03:10;101579.02;;;5.07;100.00
50867;BME280;36839;51.946;21.002;2023-02-13T15:05:49;101584.39;;;5.03;100.00
50867;BME280;36839;51.946;21.002;2023-02-13T15:08:20;101585.98;;;5.02;100.00
50867;BME280;36839;51.946;21.002;2023-02-13T15:10:53;101583.60;;;5.01;100.00
50867;BME280;36839;51.946;21.002;2023-02-13T15:13:23;101585.84;;;5.00;100.00
50867;BME280;36839;51.946;21.002;2023-02-13T15:15:57;101590.71;;;4.98;100.00
50867;BME280;36839;51.946;21.002;2023-02-13T15:18:32;101580.55;;;4.96;100.00
50867;BME280;36839;51.946;21.002;2023-02-13T15:21:08;101580.05;;;4.96;100.00
50867;BME280;36839;51.946;21.002;2023-02-13T15:23:40;101588.72;;;4.95;100.00
50867;BME280;36839;51.946;21.002;2023-02-13T15:26:15;101588.76;;;4.94;100.00
50867;BME280;36839;51.946;21.002;2023-02-13T15:29:14;101580.45;;;4.93;100.00
50867;BME280;36839;51.946;21.002;2023-02-13T15:31:43;101583.96;;;4.91;100.00
50867;BME280;36839;51.946;21.002;2023-02-13T15:34:29;101574.27;;;4.89;100.00
50867;BME280;36839;51.946;21.002;2023-02-13T15:37:00;101565.23;;;4.86;100.00
50867;BME280;36839;51.946;21.002;2023-02-13T15:39:29;101554.02;;;4.83;100.00
50867;BME280;36839;51.946;21.002;2023-02-13T15:41:59;101544.46;;;4.80;100.00
50867;BME280;36839;51.946;21.002;2023-02-13T15:44:33;101545.13;;;4.78;100.00
50867;BME280;36839;51.946;21.002;2023-02-13T15:47:05;101553.91;;;4.74;100.00
50867;BME280;36839;51.946;21.002;2023-02-13T15:49:38;101553.79;;;4.72;100.00